createdAt,value
2022-10-17T00:00:20.786Z,14.50
2022-10-17T00:03:09.218Z,14.40
2022-10-17T00:05:58.392Z,14.40
2022-10-17T00:08:47.071Z,14.40
2022-10-17T00:11:35.403Z,14.30
2022-10-17T00:14:25.223Z,14.40
2022-10-17T00:17:15.189Z,14.20
2022-10-17T00:20:03.952Z,14.10
2022-10-17T00:22:52.476Z,14.10
2022-10-17T00:25:41.494Z,14.00
2022-10-17T00:28:29.981Z,14.00
2022-10-17T00:31:21.191Z,13.90
2022-10-17T00:34:09.758Z,13.80
2022-10-17T00:36:58.208Z,13.80
2022-10-17T00:39:46.520Z,13.80
2022-10-17T00:42:35.040Z,13.80
2022-10-17T00:45:25.338Z,13.70
2022-10-17T00:48:18.882Z,13.70
2022-10-17T00:51:08.461Z,13.60
2022-10-17T00:53:57.399Z,13.60
2022-10-17T00:56:48.157Z,13.60
2022-10-17T00:59:39.040Z,13.50
2022-10-17T01:02:27.753Z,13.50
2022-10-17T01:05:19.392Z,13.40
2022-10-17T01:08:08.906Z,13.40
2022-10-17T01:11:06.806Z,13.40
2022-10-17T01:14:01.885Z,13.30
2022-10-17T01:16:58.524Z,13.20
2022-10-17T01:20:14.505Z,13.30
2022-10-17T01:23:19.252Z,13.30
2022-10-17T01:26:17.711Z,13.30
2022-10-17T01:29:32.981Z,13.30
2022-10-17T01:32:31.287Z,13.30
2022-10-17T01:35:26.820Z,13.30
2022-10-17T01:38:19.685Z,13.30
2022-10-17T01:41:14.437Z,13.30
2022-10-17T01:44:08.905Z,13.30
2022-10-17T01:47:04.503Z,13.30
2022-10-17T01:49:57.839Z,13.30
2022-10-17T01:52:49.745Z,13.30
2022-10-17T01:55:41.119Z,13.30
2022-10-17T01:58:33.080Z,13.30
2022-10-17T02:01:23.741Z,13.40
2022-10-17T02:04:12.969Z,13.40
2022-10-17T02:07:09.406Z,13.40
2022-10-17T02:09:57.731Z,13.40
2022-10-17T02:12:55.829Z,13.40
2022-10-17T02:15:58.807Z,13.40
2022-10-17T02:19:04.603Z,13.50
2022-10-17T02:22:04.876Z,13.50
2022-10-17T02:25:01.803Z,13.70
2022-10-17T02:27:55.947Z,13.80
2022-10-17T02:30:50.482Z,13.80
2022-10-17T02:33:43.873Z,13.90
2022-10-17T02:36:37.059Z,14.00
2022-10-17T02:39:27.095Z,14.10
2022-10-17T02:42:18.207Z,14.20
2022-10-17T02:45:07.978Z,14.20
2022-10-17T02:48:03.717Z,14.30
2022-10-17T02:50:59.053Z,14.40
2022-10-17T02:53:53.548Z,14.40
2022-10-17T02:56:47.569Z,14.40
2022-10-17T02:59:38.092Z,14.40
2022-10-17T03:02:26.901Z,14.50
2022-10-17T03:05:17.682Z,14.50
2022-10-17T03:08:06.259Z,14.60
2022-10-17T03:10:54.606Z,14.60
2022-10-17T03:13:42.938Z,14.60
2022-10-17T03:16:32.709Z,14.60
2022-10-17T03:19:21.051Z,14.60
2022-10-17T03:22:09.390Z,14.70
2022-10-17T03:24:57.739Z,14.60
2022-10-17T03:27:46.095Z,14.70
2022-10-17T03:30:34.900Z,14.60
2022-10-17T03:33:24.583Z,14.60
2022-10-17T03:36:14.995Z,14.60
2022-10-17T03:39:03.328Z,14.60
2022-10-17T03:41:51.679Z,14.60
2022-10-17T03:44:40.011Z,14.70
2022-10-17T03:47:29.910Z,14.60
2022-10-17T03:50:19.900Z,14.60
2022-10-17T03:53:08.228Z,14.60
2022-10-17T03:55:57.327Z,14.60
2022-10-17T03:58:46.146Z,14.60
2022-10-17T04:01:34.671Z,14.60
2022-10-17T04:04:23.138Z,14.50
2022-10-17T04:07:12.814Z,14.50
2022-10-17T04:10:01.104Z,14.70
2022-10-17T04:12:49.467Z,14.60
2022-10-17T04:15:37.765Z,14.60
2022-10-17T04:18:26.656Z,14.60
2022-10-17T04:21:15.219Z,14.50
2022-10-17T04:24:05.193Z,14.60
2022-10-17T04:26:54.747Z,14.50
2022-10-17T04:29:44.053Z,14.40
2022-10-17T04:32:33.234Z,14.40
2022-10-17T04:35:21.727Z,14.40
2022-10-17T04:38:10.062Z,14.40
2022-10-17T04:41:03.073Z,14.40
2022-10-17T04:43:51.618Z,14.40
2022-10-17T04:46:40.079Z,14.40
2022-10-17T04:49:28.641Z,14.40
2022-10-17T04:52:17.183Z,14.40
2022-10-17T04:55:06.210Z,14.40
2022-10-17T04:57:55.887Z,14.40
2022-10-17T05:00:44.346Z,14.40
2022-10-17T05:03:32.718Z,14.30
2022-10-17T05:06:22.603Z,14.30
2022-10-17T05:09:10.969Z,14.30
2022-10-17T05:11:59.299Z,14.40
2022-10-17T05:14:49.007Z,14.30
2022-10-17T05:17:37.340Z,14.40
2022-10-17T05:20:25.951Z,14.40
2022-10-17T05:23:14.299Z,14.40
2022-10-17T05:26:02.658Z,14.40
2022-10-17T05:28:52.493Z,14.30
2022-10-17T05:31:42.311Z,14.40
2022-10-17T05:34:30.641Z,14.30
2022-10-17T05:37:18.988Z,14.30
2022-10-17T05:40:08.459Z,14.30
2022-10-17T05:42:56.757Z,14.30
2022-10-17T05:45:45.086Z,14.20
2022-10-17T05:48:35.471Z,14.20
2022-10-17T05:51:23.857Z,14.20
2022-10-17T05:54:12.231Z,14.20
2022-10-17T05:57:00.569Z,14.20
2022-10-17T05:59:48.930Z,14.20
2022-10-17T06:02:37.238Z,14.20
2022-10-17T06:05:26.973Z,14.20
2022-10-17T06:08:15.315Z,14.20
2022-10-17T06:11:06.138Z,14.30
2022-10-17T06:13:57.641Z,14.30
2022-10-17T06:16:45.982Z,14.30
2022-10-17T06:19:34.294Z,14.40
2022-10-17T06:22:24.176Z,14.40
2022-10-17T06:25:12.769Z,14.50
2022-10-17T06:28:01.116Z,14.50
2022-10-17T06:30:49.426Z,14.60
2022-10-17T06:33:38.444Z,14.70
2022-10-17T06:36:26.809Z,14.80
2022-10-17T06:39:16.771Z,14.90
2022-10-17T06:42:05.957Z,15.00
2022-10-17T06:44:54.286Z,15.10
2022-10-17T06:47:42.624Z,15.10
2022-10-17T06:50:30.936Z,15.20
2022-10-17T06:53:19.233Z,15.20
2022-10-17T06:56:11.011Z,15.30
2022-10-17T06:58:59.357Z,15.40
2022-10-17T07:01:47.666Z,15.50
2022-10-17T07:04:36.017Z,15.50
2022-10-17T07:07:24.373Z,15.60
2022-10-17T07:10:12.977Z,15.70
2022-10-17T07:13:02.655Z,15.70
2022-10-17T07:15:51.051Z,15.70
2022-10-17T07:18:39.594Z,15.80
2022-10-17T07:21:27.934Z,15.80
2022-10-17T07:24:16.524Z,15.90
2022-10-17T07:27:05.595Z,15.90
2022-10-17T07:29:55.381Z,16.00
2022-10-17T07:32:44.537Z,16.20
2022-10-17T07:35:33.091Z,16.20
2022-10-17T07:38:21.407Z,16.40
2022-10-17T07:41:11.985Z,16.50
2022-10-17T07:44:00.322Z,16.60
2022-10-17T07:46:49.983Z,16.70
2022-10-17T07:49:42.430Z,16.80
2022-10-17T07:52:31.104Z,16.90
2022-10-17T07:55:19.675Z,16.90
2022-10-17T07:58:08.344Z,17.00
2022-10-17T08:00:56.805Z,17.10
2022-10-17T08:03:48.597Z,17.10
2022-10-17T08:06:36.915Z,17.30
2022-10-17T08:09:25.263Z,17.40
2022-10-17T08:12:14.832Z,17.50
2022-10-17T08:15:03.334Z,17.70
2022-10-17T08:17:51.954Z,17.80
2022-10-17T08:20:41.651Z,18.00
2022-10-17T08:23:30.212Z,18.10
2022-10-17T08:26:20.051Z,18.20
2022-10-17T08:29:14.363Z,18.30
2022-10-17T08:32:05.429Z,18.50
2022-10-17T08:34:55.700Z,18.60
2022-10-17T08:37:45.386Z,18.60
2022-10-17T08:40:35.434Z,18.80
2022-10-17T08:43:35.655Z,19.00
2022-10-17T08:46:24.372Z,19.10
2022-10-17T08:49:17.633Z,19.20
2022-10-17T08:52:12.604Z,19.40
2022-10-17T08:55:02.491Z,19.50
2022-10-17T08:57:50.807Z,19.70
2022-10-17T09:00:40.836Z,19.80
2022-10-17T09:03:41.442Z,19.90
2022-10-17T09:06:34.995Z,20.00
2022-10-17T09:09:36.131Z,20.00
2022-10-17T09:12:32.573Z,20.10
2022-10-17T09:15:49.779Z,20.10
2022-10-17T09:18:41.543Z,20.20
2022-10-17T09:21:40.623Z,20.40
2022-10-17T09:24:43.923Z,20.50
2022-10-17T09:27:37.780Z,20.70
2022-10-17T09:30:45.958Z,20.80
2022-10-17T09:33:53.396Z,20.90
2022-10-17T09:36:42.536Z,21.00
2022-10-17T09:39:32.112Z,21.10
2022-10-17T09:42:25.005Z,21.10
2022-10-17T09:45:24.716Z,21.20
2022-10-17T09:48:21.439Z,21.30
2022-10-17T09:51:21.850Z,21.40
2022-10-17T09:54:33.449Z,21.50
2022-10-17T09:57:23.059Z,21.60
2022-10-17T10:00:23.954Z,21.70
2022-10-17T10:03:19.094Z,21.70
2022-10-17T10:06:13.858Z,21.80
2022-10-17T10:09:03.453Z,21.80
2022-10-17T10:11:54.072Z,21.80
2022-10-17T10:14:45.133Z,21.90
2022-10-17T10:17:41.692Z,22.00
2022-10-17T10:20:35.001Z,22.00
2022-10-17T10:23:24.360Z,22.10
2022-10-17T10:26:25.814Z,22.10
2022-10-17T10:29:24.696Z,22.20
2022-10-17T10:32:19.179Z,22.20
2022-10-17T10:35:20.001Z,22.30
2022-10-17T10:38:14.789Z,22.40
2022-10-17T10:41:06.020Z,22.50
2022-10-17T10:43:56.265Z,22.60
2022-10-17T10:46:44.766Z,22.60
2022-10-17T10:49:33.801Z,22.80
2022-10-17T10:52:33.840Z,22.80
2022-10-17T10:55:28.319Z,22.90
2022-10-17T10:58:28.534Z,23.00
2022-10-17T11:01:23.336Z,23.10
2022-10-17T11:04:32.342Z,23.30
2022-10-17T11:07:24.374Z,23.30
2022-10-17T11:10:19.238Z,23.50
2022-10-17T11:13:14.877Z,23.70
2022-10-17T11:16:13.230Z,23.80
2022-10-17T11:19:09.390Z,23.70
2022-10-17T11:22:11.759Z,23.70
2022-10-17T11:25:04.948Z,23.60
2022-10-17T11:27:54.763Z,23.50
2022-10-17T11:30:49.081Z,23.40
2022-10-17T11:33:46.689Z,23.40
2022-10-17T11:36:40.620Z,23.60
2022-10-17T11:39:35.178Z,23.70
2022-10-17T11:42:28.681Z,23.70
2022-10-17T11:45:22.916Z,23.70
2022-10-17T11:48:20.990Z,23.80
2022-10-17T11:54:26.299Z,24.00
2022-10-17T11:57:38.685Z,24.00
2022-10-17T12:00:41.672Z,23.90
2022-10-17T12:03:47.426Z,23.90
2022-10-17T12:06:48.369Z,23.90
2022-10-17T12:09:43.292Z,23.90
2022-10-17T12:12:33.620Z,23.90
2022-10-17T12:15:33.836Z,23.90
2022-10-17T12:18:27.334Z,23.90
2022-10-17T12:21:16.011Z,23.90
2022-10-17T12:24:04.470Z,23.90
2022-10-17T12:26:56.333Z,24.00
2022-10-17T12:29:45.496Z,24.10
2022-10-17T12:33:00.396Z,24.20
2022-10-17T12:35:44.172Z,24.20
2022-10-17T12:38:32.544Z,24.20
2022-10-17T12:41:54.946Z,24.20
2022-10-17T12:44:44.828Z,24.20
2022-10-17T12:47:40.124Z,24.30
2022-10-17T12:51:30.765Z,24.30
2022-10-17T12:54:15.043Z,24.30
2022-10-17T12:57:03.413Z,24.40
2022-10-17T12:59:56.706Z,24.40
2022-10-17T13:02:49.361Z,24.50
2022-10-17T13:05:41.038Z,24.50
2022-10-17T13:08:32.816Z,24.60
2022-10-17T13:11:24.708Z,24.70
2022-10-17T13:14:15.219Z,24.80
2022-10-17T13:17:05.052Z,24.90
2022-10-17T13:19:55.917Z,24.90
2022-10-17T13:22:46.647Z,24.90
2022-10-17T13:25:38.833Z,24.90
2022-10-17T13:28:29.149Z,24.90
2022-10-17T13:31:30.903Z,25.00
2022-10-17T13:34:21.550Z,25.00
2022-10-17T13:37:13.558Z,25.00
2022-10-17T13:40:11.408Z,24.90
2022-10-17T13:43:11.333Z,24.90
2022-10-17T13:46:25.630Z,24.90
2022-10-17T13:49:28.267Z,24.90
2022-10-17T13:52:19.984Z,25.00
2022-10-17T13:55:11.761Z,25.00
2022-10-17T13:58:11.381Z,25.10
2022-10-17T14:00:59.989Z,25.10
2022-10-17T14:03:57.084Z,25.10
2022-10-17T14:06:52.215Z,25.10
2022-10-17T14:09:42.346Z,25.10
2022-10-17T14:12:30.711Z,25.10
2022-10-17T14:15:19.737Z,25.10
2022-10-17T14:18:11.765Z,25.10
2022-10-17T14:24:27.742Z,25.00
2022-10-17T14:27:30.464Z,25.10
2022-10-17T14:30:55.266Z,25.10
2022-10-17T14:33:49.778Z,25.10
2022-10-17T14:36:42.102Z,25.10
2022-10-17T14:39:30.887Z,25.10
2022-10-17T14:42:21.426Z,25.10
2022-10-17T14:45:20.122Z,25.00
2022-10-17T14:48:15.498Z,25.00
2022-10-17T14:51:11.361Z,24.90
2022-10-17T14:54:05.896Z,24.80
2022-10-17T14:56:55.998Z,24.70
2022-10-17T14:59:59.657Z,24.70
2022-10-17T15:02:50.632Z,24.70
2022-10-17T15:05:39.030Z,24.60
2022-10-17T15:08:27.425Z,24.50
2022-10-17T15:11:15.846Z,24.40
2022-10-17T15:14:04.180Z,24.40
2022-10-17T15:16:52.536Z,24.40
2022-10-17T15:19:42.446Z,24.30
2022-10-17T15:22:31.613Z,24.30
2022-10-17T15:25:20.292Z,24.20
2022-10-17T15:28:08.979Z,24.10
2022-10-17T15:30:57.300Z,24.10
2022-10-17T15:33:46.551Z,23.90
2022-10-17T15:36:41.047Z,23.70
2022-10-17T15:39:29.392Z,23.60
2022-10-17T15:42:17.730Z,23.50
2022-10-17T15:48:05.238Z,23.30
2022-10-17T15:50:53.585Z,23.20
2022-10-17T15:53:43.357Z,23.10
2022-10-17T15:56:36.229Z,23.00
2022-10-17T15:59:33.026Z,23.00
2022-10-17T16:02:23.428Z,22.90
2022-10-17T16:05:16.640Z,22.80
2022-10-17T16:08:05.590Z,22.70
2022-10-17T16:10:56.587Z,22.60
2022-10-17T16:13:48.663Z,22.50
2022-10-17T16:16:37.284Z,22.50
2022-10-17T16:19:27.230Z,22.40
2022-10-17T16:22:22.163Z,22.40
2022-10-17T16:25:20.128Z,22.30
2022-10-17T16:28:11.918Z,22.30
2022-10-17T16:31:00.347Z,22.30
2022-10-17T16:33:49.308Z,22.30
2022-10-17T16:36:37.707Z,22.30
2022-10-17T16:42:19.505Z,22.10
2022-10-17T16:45:11.379Z,22.00
2022-10-17T16:47:59.791Z,22.00
2022-10-17T16:50:48.113Z,21.90
2022-10-17T16:53:39.933Z,21.80
2022-10-17T16:56:29.855Z,21.60
2022-10-17T16:59:18.201Z,21.50
2022-10-17T17:02:08.118Z,21.20
2022-10-17T17:04:56.475Z,21.10
2022-10-17T17:07:44.810Z,21.10
2022-10-17T17:10:33.120Z,21.00
2022-10-17T17:13:21.482Z,20.90
2022-10-17T17:16:12.020Z,20.80
2022-10-17T17:19:04.539Z,20.80
2022-10-17T17:21:52.874Z,20.80
2022-10-17T17:24:41.247Z,20.70
2022-10-17T17:27:30.154Z,20.70
2022-10-17T17:30:19.005Z,20.60
2022-10-17T17:33:07.321Z,20.70
2022-10-17T17:35:58.310Z,20.70
2022-10-17T17:38:47.054Z,20.70
2022-10-17T17:41:35.844Z,20.70
2022-10-17T17:44:24.218Z,20.80
2022-10-17T17:47:12.531Z,20.80
2022-10-17T17:50:00.899Z,20.80
2022-10-17T17:52:51.158Z,20.80
2022-10-17T17:55:39.694Z,20.70
2022-10-17T17:58:28.018Z,20.60
2022-10-17T18:01:21.462Z,20.50
2022-10-17T18:04:10.354Z,20.40
2022-10-17T18:06:58.661Z,20.30
2022-10-17T18:09:49.292Z,20.20
2022-10-17T18:12:37.687Z,20.10
2022-10-17T18:15:26.088Z,20.00
2022-10-17T18:18:14.624Z,20.00
2022-10-17T18:21:03.017Z,19.90
2022-10-17T18:23:51.867Z,19.80
2022-10-17T18:26:42.062Z,19.80
2022-10-17T18:29:31.146Z,19.80
2022-10-17T18:32:20.334Z,19.80
2022-10-17T18:35:09.136Z,19.70
2022-10-17T18:37:57.478Z,19.70
2022-10-17T18:40:48.567Z,19.70
2022-10-17T18:43:42.745Z,19.60
2022-10-17T18:46:35.879Z,19.60
2022-10-17T18:49:25.073Z,19.60
2022-10-17T18:52:13.471Z,19.60
2022-10-17T18:55:01.797Z,19.70
2022-10-17T18:57:50.256Z,19.80
2022-10-17T19:00:40.186Z,19.90
2022-10-17T19:03:28.526Z,20.00
2022-10-17T19:06:18.880Z,20.10
2022-10-17T19:09:09.550Z,20.20
2022-10-17T19:11:57.675Z,20.20
2022-10-17T19:14:46.505Z,20.20
2022-10-17T19:17:36.566Z,20.20
2022-10-17T19:20:24.890Z,20.20
2022-10-17T19:23:13.329Z,20.20
2022-10-17T19:26:04.040Z,20.20
2022-10-17T19:28:53.846Z,20.20
2022-10-17T19:31:42.744Z,20.20
2022-10-17T19:34:32.490Z,20.20
2022-10-17T19:37:20.945Z,20.20
2022-10-17T19:40:10.416Z,20.20
2022-10-17T19:42:58.751Z,20.20
2022-10-17T19:45:55.967Z,20.10
2022-10-17T19:48:44.888Z,20.10
2022-10-17T19:51:34.915Z,20.10
2022-10-17T19:54:23.536Z,20.00
2022-10-17T19:57:11.898Z,20.00
2022-10-17T20:00:00.259Z,19.90
2022-10-17T20:02:48.591Z,19.90
2022-10-17T20:05:39.202Z,19.80
2022-10-17T20:08:28.990Z,19.60
2022-10-17T20:11:19.788Z,19.60
2022-10-17T20:14:08.506Z,19.40
2022-10-17T20:16:56.894Z,19.20
2022-10-17T20:19:45.288Z,19.20
2022-10-17T20:22:33.728Z,19.20
2022-10-17T20:25:23.673Z,19.10
2022-10-17T20:28:12.379Z,19.00
2022-10-17T20:31:00.945Z,19.00
2022-10-17T20:33:49.293Z,18.90
2022-10-17T20:36:37.801Z,18.90
2022-10-17T20:39:26.305Z,18.80
2022-10-17T20:42:16.006Z,18.80
2022-10-17T20:45:04.681Z,18.90
2022-10-17T20:47:53.974Z,18.90
2022-10-17T20:50:43.543Z,18.90
2022-10-17T20:53:36.882Z,18.90
2022-10-17T20:56:27.976Z,18.80
2022-10-17T20:59:19.013Z,18.90
2022-10-17T21:02:07.884Z,18.90
2022-10-17T21:04:56.217Z,19.00
2022-10-17T21:07:44.661Z,19.10
2022-10-17T21:10:35.428Z,19.10
2022-10-17T21:13:24.047Z,19.10
2022-10-17T21:16:16.162Z,19.10
2022-10-17T21:19:05.870Z,19.10
2022-10-17T21:21:54.243Z,19.20
2022-10-17T21:24:42.610Z,19.20
2022-10-17T21:27:30.932Z,19.30
2022-10-17T21:30:19.878Z,19.30
2022-10-17T21:33:09.683Z,19.30
2022-10-17T21:35:58.298Z,19.30
2022-10-17T21:38:47.906Z,19.30
2022-10-17T21:41:36.240Z,19.40
2022-10-17T21:44:26.669Z,19.40
2022-10-17T21:47:14.995Z,19.50
2022-10-17T21:50:05.048Z,19.50
2022-10-17T21:52:53.514Z,19.60
2022-10-17T21:55:41.835Z,19.60
2022-10-17T21:58:30.409Z,19.60
2022-10-17T22:01:21.604Z,19.60
2022-10-17T22:04:12.650Z,19.70
2022-10-17T22:07:02.323Z,19.70
2022-10-17T22:09:50.645Z,19.70
2022-10-17T22:12:38.955Z,19.70
2022-10-17T22:15:27.337Z,19.70
2022-10-17T22:18:16.103Z,19.70
2022-10-17T22:21:05.361Z,19.70
2022-10-17T22:23:58.627Z,19.70
2022-10-17T22:26:47.376Z,19.60
2022-10-17T22:29:35.800Z,19.60
2022-10-17T22:32:24.146Z,19.60
2022-10-17T22:35:12.449Z,19.60
2022-10-17T22:38:00.796Z,19.50
2022-10-17T22:40:50.489Z,19.60
2022-10-17T22:43:38.814Z,19.60
2022-10-17T22:46:27.288Z,19.60
2022-10-17T22:49:15.654Z,19.60
2022-10-17T22:52:04.245Z,19.60
2022-10-17T22:54:52.572Z,19.60
2022-10-17T22:57:42.326Z,19.60
2022-10-17T23:00:30.852Z,19.60
2022-10-17T23:03:19.805Z,19.50
2022-10-17T23:06:08.181Z,19.50
2022-10-17T23:08:56.492Z,19.50
2022-10-17T23:11:44.872Z,19.50
2022-10-17T23:14:37.418Z,19.50
2022-10-17T23:17:25.838Z,19.40
2022-10-17T23:20:14.183Z,19.40
2022-10-17T23:23:02.603Z,19.40
2022-10-17T23:25:51.890Z,19.40
2022-10-17T23:28:41.099Z,19.40
2022-10-17T23:31:30.856Z,19.40
2022-10-17T23:34:19.179Z,19.30
2022-10-17T23:37:07.546Z,19.30
2022-10-17T23:39:55.851Z,19.40
2022-10-17T23:42:45.071Z,19.30
2022-10-17T23:45:36.230Z,19.30
2022-10-17T23:48:26.696Z,19.30
2022-10-17T23:51:15.160Z,19.20
2022-10-17T23:54:04.688Z,19.20
2022-10-17T23:56:53.018Z,19.20
2022-10-17T23:59:41.371Z,19.20
